sensor_id;sensor_type;location;lat;lon;timestamp;pressure;altitude;pressure_sealevel;temperature;humidity
18985;BME280;9626;52.552;13.436;2023-05-03T00:01:07;102028.91;;;9.41;60.92
18985;BME280;9626;52.552;13.436;2023-05-03T00:03:33;102028.06;;;9.48;60.88
18985;BME280;9626;52.552;13.436;2023-05-03T00:06:09;102033.19;;;9.24;60.29
18985;BME280;9626;52.552;13.436;2023-05-03T00:08:36;102031.44;;;9.23;61.44
18985;BME280;9626;52.552;13.436;2023-05-03T00:11:02;102032.41;;;9.33;61.18
18985;BME280;9626;52.552;13.436;2023-05-03T00:13:28;102033.28;;;9.33;61.15
18985;BME280;9626;52.552;13.436;2023-05-03T00:15:54;102041.06;;;9.16;60.90
18985;BME280;9626;52.552;13.436;2023-05-03T00:18:20;102038.38;;;9.05;62.18
18985;BME280;9626;52.552;13.436;2023-05-03T00:20:46;102038.28;;;8.96;62.74
18985;BME280;9626;52.552;13.436;2023-05-03T00:23:12;102035.59;;;8.93;63.02
18985;BME280;9626;52.552;13.436;2023-05-03T00:25:38;102034.63;;;8.80;63.12
18985;BME280;9626;52.552;13.436;2023-05-03T00:28:04;102033.69;;;8.75;63.67
18985;BME280;9626;52.552;13.436;2023-05-03T00:30:30;102034.50;;;8.69;64.17
18985;BME280;9626;52.552;13.436;2023-05-03T00:32:56;102031.00;;;8.70;64.84
18985;BME280;9626;52.552;13.436;2023-05-03T00:35:22;102031.03;;;8.76;64.63
18985;BME280;9626;52.552;13.436;2023-05-03T00:37:48;102032.91;;;8.84;64.88
18985;BME280;9626;52.552;13.436;2023-05-03T00:40:14;102037.44;;;9.00;64.07
18985;BME280;9626;52.552;13.436;2023-05-03T00:42:43;102036.38;;;8.79;64.82
18985;BME280;9626;52.552;13.436;2023-05-03T00:45:11;102038.97;;;8.78;64.97
18985;BME280;9626;52.552;13.436;2023-05-03T00:47:37;102033.66;;;8.72;65.08
18985;BME280;9626;52.552;13.436;2023-05-03T00:50:05;102039.78;;;8.68;66.20
18985;BME280;9626;52.552;13.436;2023-05-03T00:52:33;102044.09;;;8.56;66.57
18985;BME280;9626;52.552;13.436;2023-05-03T00:54:59;102035.25;;;8.57;67.17
18985;BME280;9626;52.552;13.436;2023-05-03T00:57:26;102039.50;;;8.44;67.74
18985;BME280;9626;52.552;13.436;2023-05-03T00:59:54;102029.13;;;8.57;67.82
18985;BME280;9626;52.552;13.436;2023-05-03T01:02:21;102035.25;;;8.54;67.67
18985;BME280;9626;52.552;13.436;2023-05-03T01:04:47;102032.56;;;8.48;67.83
18985;BME280;9626;52.552;13.436;2023-05-03T01:10:09;102030.94;;;8.64;67.37
18985;BME280;9626;52.552;13.436;2023-05-03T01:15:24;102033.53;;;8.56;67.58
18985;BME280;9626;52.552;13.436;2023-05-03T01:17:57;102036.06;;;8.49;68.88
18985;BME280;9626;52.552;13.436;2023-05-03T01:20:25;102036.88;;;8.44;68.79
18985;BME280;9626;52.552;13.436;2023-05-03T01:23:04;102037.72;;;8.40;69.88
18985;BME280;9626;52.552;13.436;2023-05-03T01:25:30;102039.44;;;8.38;70.02
18985;BME280;9626;52.552;13.436;2023-05-03T01:27:57;102042.75;;;8.20;70.72
18985;BME280;9626;52.552;13.436;2023-05-03T01:30:25;102037.56;;;8.28;71.59
18985;BME280;9626;52.552;13.436;2023-05-03T01:33:22;102043.56;;;8.13;71.78
18985;BME280;9626;52.552;13.436;2023-05-03T01:35:56;102046.31;;;8.24;72.10
18985;BME280;9626;52.552;13.436;2023-05-03T01:38:28;102051.75;;;8.36;70.80
18985;BME280;9626;52.552;13.436;2023-05-03T01:40:59;102049.13;;;8.38;70.67
18985;BME280;9626;52.552;13.436;2023-05-03T01:43:28;102050.00;;;8.38;71.30
18985;BME280;9626;52.552;13.436;2023-05-03T01:45:57;102040.25;;;8.34;70.94
18985;BME280;9626;52.552;13.436;2023-05-03T01:48:23;102046.47;;;8.36;71.13
18985;BME280;9626;52.552;13.436;2023-05-03T01:50:49;102046.38;;;8.30;71.63
18985;BME280;9626;52.552;13.436;2023-05-03T01:53:15;102048.03;;;8.19;71.79
18985;BME280;9626;52.552;13.436;2023-05-03T01:55:41;102042.56;;;8.03;72.58
18985;BME280;9626;52.552;13.436;2023-05-03T01:58:07;102053.78;;;7.87;74.39
18985;BME280;9626;52.552;13.436;2023-05-03T02:00:33;102047.75;;;7.97;74.60
18985;BME280;9626;52.552;13.436;2023-05-03T02:02:59;102047.88;;;8.06;74.03
18985;BME280;9626;52.552;13.436;2023-05-03T02:05:25;102039.00;;;8.01;74.14
18985;BME280;9626;52.552;13.436;2023-05-03T02:07:51;102047.94;;;8.12;73.81
18985;BME280;9626;52.552;13.436;2023-05-03T02:10:17;102054.94;;;8.07;74.12
18985;BME280;9626;52.552;13.436;2023-05-03T02:12:44;102048.75;;;8.07;73.72
18985;BME280;9626;52.552;13.436;2023-05-03T02:15:11;102051.31;;;7.99;74.41
18985;BME280;9626;52.552;13.436;2023-05-03T02:17:37;102050.38;;;7.95;74.70
18985;BME280;9626;52.552;13.436;2023-05-03T02:20:04;102055.69;;;7.99;74.68
18985;BME280;9626;52.552;13.436;2023-05-03T02:22:31;102052.19;;;8.01;74.21
18985;BME280;9626;52.552;13.436;2023-05-03T02:24:57;102057.41;;;7.93;74.94
18985;BME280;9626;52.552;13.436;2023-05-03T02:27:24;102058.28;;;7.94;74.83
18985;BME280;9626;52.552;13.436;2023-05-03T02:29:50;102068.69;;;7.85;75.42
18985;BME280;9626;52.552;13.436;2023-05-03T02:32:16;102072.19;;;7.85;75.55
18985;BME280;9626;52.552;13.436;2023-05-03T02:34:45;102065.06;;;7.76;76.46
18985;BME280;9626;52.552;13.436;2023-05-03T02:37:11;102067.75;;;7.81;75.87
18985;BME280;9626;52.552;13.436;2023-05-03T02:39:37;102069.47;;;7.77;74.91
18985;BME280;9626;52.552;13.436;2023-05-03T02:42:03;102066.81;;;7.74;76.25
18985;BME280;9626;52.552;13.436;2023-05-03T02:44:29;102075.66;;;7.79;75.86
18985;BME280;9626;52.552;13.436;2023-05-03T02:46:55;102074.78;;;7.79;75.96
18985;BME280;9626;52.552;13.436;2023-05-03T02:49:21;102073.00;;;7.78;76.27
18985;BME280;9626;52.552;13.436;2023-05-03T02:51:48;102072.00;;;7.70;76.80
18985;BME280;9626;52.552;13.436;2023-05-03T02:54:15;102077.25;;;7.68;77.23
18985;BME280;9626;52.552;13.436;2023-05-03T02:56:41;102078.06;;;7.64;77.49
18985;BME280;9626;52.552;13.436;2023-05-03T02:59:07;102082.31;;;7.53;77.68
18985;BME280;9626;52.552;13.436;2023-05-03T03:01:33;102083.13;;;7.49;78.21
18985;BME280;9626;52.552;13.436;2023-05-03T03:03:59;102084.03;;;7.51;78.85
18985;BME280;9626;52.552;13.436;2023-05-03T03:06:25;102084.84;;;7.48;78.80
18985;BME280;9626;52.552;13.436;2023-05-03T03:08:51;102087.44;;;7.43;79.67
18985;BME280;9626;52.552;13.436;2023-05-03T03:11:17;102091.66;;;7.32;80.53
18985;BME280;9626;52.552;13.436;2023-05-03T03:13:43;102085.63;;;7.39;80.27
18985;BME280;9626;52.552;13.436;2023-05-03T03:16:10;102093.44;;;7.35;80.41
18985;BME280;9626;52.552;13.436;2023-05-03T03:18:36;102085.56;;;7.36;81.29
18985;BME280;9626;52.552;13.436;2023-05-03T03:21:02;102093.47;;;7.36;80.65
18985;BME280;9626;52.552;13.436;2023-05-03T03:23:28;102091.69;;;7.34;80.84
18985;BME280;9626;52.552;13.436;2023-05-03T03:25:55;102096.13;;;7.36;80.46
18985;BME280;9626;52.552;13.436;2023-05-03T03:28:21;102092.50;;;7.31;80.42
18985;BME280;9626;52.552;13.436;2023-05-03T03:30:47;102099.56;;;7.32;80.43
18985;BME280;9626;52.552;13.436;2023-05-03T03:33:13;102100.25;;;7.22;80.43
18985;BME280;9626;52.552;13.436;2023-05-03T03:35:41;102101.13;;;7.22;80.95
18985;BME280;9626;52.552;13.436;2023-05-03T03:38:07;102098.47;;;7.19;81.14
18985;BME280;9626;52.552;13.436;2023-05-03T03:40:33;102105.31;;;7.08;81.75
18985;BME280;9626;52.552;13.436;2023-05-03T03:42:59;102107.03;;;7.07;82.43
18985;BME280;9626;52.552;13.436;2023-05-03T03:45:25;102108.00;;;7.13;81.97
18985;BME280;9626;52.552;13.436;2023-05-03T03:47:51;102114.13;;;7.11;81.42
18985;BME280;9626;52.552;13.436;2023-05-03T03:50:16;102115.81;;;7.06;81.96
18985;BME280;9626;52.552;13.436;2023-05-03T03:52:43;102118.44;;;7.05;82.53
18985;BME280;9626;52.552;13.436;2023-05-03T03:55:10;102117.44;;;6.98;82.71
18985;BME280;9626;52.552;13.436;2023-05-03T03:57:37;102119.97;;;6.93;83.43
18985;BME280;9626;52.552;13.436;2023-05-03T04:00:03;102118.31;;;7.00;83.67
18985;BME280;9626;52.552;13.436;2023-05-03T04:02:36;102128.84;;;7.00;82.82
18985;BME280;9626;52.552;13.436;2023-05-03T04:05:03;102135.06;;;7.02;82.69
18985;BME280;9626;52.552;13.436;2023-05-03T04:07:30;102131.41;;;6.96;83.06
18985;BME280;9626;52.552;13.436;2023-05-03T04:09:56;102133.94;;;6.91;83.61
18985;BME280;9626;52.552;13.436;2023-05-03T04:12:24;102135.78;;;6.95;83.57
18985;BME280;9626;52.552;13.436;2023-05-03T04:14:50;102144.25;;;6.79;84.13
18985;BME280;9626;52.552;13.436;2023-05-03T04:17:16;102145.16;;;6.79;85.37
18985;BME280;9626;52.552;13.436;2023-05-03T04:19:42;102142.31;;;6.68;86.08
18985;BME280;9626;52.552;13.436;2023-05-03T04:22:09;102150.03;;;6.59;87.37
18985;BME280;9626;52.552;13.436;2023-05-03T04:24:35;102154.53;;;6.66;87.76
18985;BME280;9626;52.552;13.436;2023-05-03T04:27:04;102149.41;;;6.71;86.80
18985;BME280;9626;52.552;13.436;2023-05-03T04:29:30;102158.03;;;6.65;87.96
18985;BME280;9626;52.552;13.436;2023-05-03T04:31:56;102160.91;;;6.77;87.90
18985;BME280;9626;52.552;13.436;2023-05-03T04:34:22;102163.28;;;6.65;87.85
18985;BME280;9626;52.552;13.436;2023-05-03T04:36:48;102162.28;;;6.58;89.42
18985;BME280;9626;52.552;13.436;2023-05-03T04:39:14;102166.69;;;6.59;90.13
18985;BME280;9626;52.552;13.436;2023-05-03T04:41:40;102170.22;;;6.60;90.79
18985;BME280;9626;52.552;13.436;2023-05-03T04:44:06;102171.31;;;6.70;89.66
18985;BME280;9626;52.552;13.436;2023-05-03T04:46:32;102170.47;;;6.72;87.83
18985;BME280;9626;52.552;13.436;2023-05-03T04:48:58;102173.13;;;6.72;88.15
18985;BME280;9626;52.552;13.436;2023-05-03T04:51:24;102168.94;;;6.84;87.64
18985;BME280;9626;52.552;13.436;2023-05-03T04:53:50;102172.56;;;6.90;87.41
18985;BME280;9626;52.552;13.436;2023-05-03T04:56:16;102179.53;;;6.88;85.68
18985;BME280;9626;52.552;13.436;2023-05-03T04:58:44;102179.72;;;6.98;85.93
18985;BME280;9626;52.552;13.436;2023-05-03T05:01:10;102178.81;;;6.96;84.54
18985;BME280;9626;52.552;13.436;2023-05-03T05:03:36;102176.25;;;7.00;84.93
18985;BME280;9626;52.552;13.436;2023-05-03T05:06:03;102181.47;;;6.97;84.49
18985;BME280;9626;52.552;13.436;2023-05-03T05:08:29;102184.19;;;7.02;83.81
18985;BME280;9626;52.552;13.436;2023-05-03T05:10:55;102176.88;;;6.87;85.46
18985;BME280;9626;52.552;13.436;2023-05-03T05:13:21;102181.44;;;6.94;86.35
18985;BME280;9626;52.552;13.436;2023-05-03T05:15:47;102180.56;;;6.95;85.04
18985;BME280;9626;52.552;13.436;2023-05-03T05:18:13;102178.03;;;7.00;86.10
18985;BME280;9626;52.552;13.436;2023-05-03T05:20:39;102185.16;;;7.05;85.25
18985;BME280;9626;52.552;13.436;2023-05-03T05:23:05;102182.50;;;7.04;85.02
18985;BME280;9626;52.552;13.436;2023-05-03T05:25:31;102185.16;;;7.05;84.08
18985;BME280;9626;52.552;13.436;2023-05-03T05:27:57;102183.34;;;7.03;84.50
18985;BME280;9626;52.552;13.436;2023-05-03T05:30:23;102181.88;;;7.19;83.34
18985;BME280;9626;52.552;13.436;2023-05-03T05:32:49;102187.31;;;7.28;83.71
18985;BME280;9626;52.552;13.436;2023-05-03T05:35:15;102185.72;;;7.36;82.37
18985;BME280;9626;52.552;13.436;2023-05-03T05:37:43;102189.38;;;7.44;82.67
18985;BME280;9626;52.552;13.436;2023-05-03T05:40:10;102196.56;;;7.55;81.49
18985;BME280;9626;52.552;13.436;2023-05-03T05:42:37;102191.41;;;7.63;80.17
18985;BME280;9626;52.552;13.436;2023-05-03T05:45:03;102196.50;;;7.52;80.61
18985;BME280;9626;52.552;13.436;2023-05-03T05:47:30;102200.97;;;7.56;81.29
18985;BME280;9626;52.552;13.436;2023-05-03T05:49:57;102199.22;;;7.58;80.76
18985;BME280;9626;52.552;13.436;2023-05-03T05:52:23;102205.63;;;7.72;81.02
18985;BME280;9626;52.552;13.436;2023-05-03T05:54:49;102200.56;;;7.86;81.43
18985;BME280;9626;52.552;13.436;2023-05-03T05:57:15;102201.53;;;7.90;79.61
18985;BME280;9626;52.552;13.436;2023-05-03T05:59:41;102208.50;;;7.88;78.39
18985;BME280;9626;52.552;13.436;2023-05-03T06:02:14;102208.25;;;7.71;79.09
18985;BME280;9626;52.552;13.436;2023-05-03T06:04:41;102211.69;;;7.65;80.58
18985;BME280;9626;52.552;13.436;2023-05-03T06:07:07;102202.09;;;7.70;81.48
18985;BME280;9626;52.552;13.436;2023-05-03T06:09:33;102206.84;;;7.93;80.54
18985;BME280;9626;52.552;13.436;2023-05-03T06:11:59;102213.88;;;7.92;78.48
18985;BME280;9626;52.552;13.436;2023-05-03T06:14:25;102219.53;;;8.19;78.65
18985;BME280;9626;52.552;13.436;2023-05-03T06:16:51;102221.41;;;8.27;77.00
18985;BME280;9626;52.552;13.436;2023-05-03T06:19:17;102221.50;;;8.32;76.37
18985;BME280;9626;52.552;13.436;2023-05-03T06:21:43;102211.91;;;8.39;76.05
18985;BME280;9626;52.552;13.436;2023-05-03T06:24:09;102212.88;;;8.44;74.98
18985;BME280;9626;52.552;13.436;2023-05-03T06:26:36;102220.88;;;8.49;74.42
18985;BME280;9626;52.552;13.436;2023-05-03T06:29:02;102215.75;;;8.61;79.68
18985;BME280;9626;52.552;13.436;2023-05-03T06:31:28;102221.28;;;8.79;76.69
18985;BME280;9626;52.552;13.436;2023-05-03T06:33:54;102224.88;;;8.86;70.43
18985;BME280;9626;52.552;13.436;2023-05-03T06:36:21;102220.25;;;8.70;72.70
18985;BME280;9626;52.552;13.436;2023-05-03T06:38:47;102216.00;;;8.83;71.26
18985;BME280;9626;52.552;13.436;2023-05-03T06:41:12;102217.91;;;8.94;70.33
18985;BME280;9626;52.552;13.436;2023-05-03T06:43:38;102228.69;;;9.14;69.43
18985;BME280;9626;52.552;13.436;2023-05-03T06:46:04;102221.81;;;9.29;67.04
18985;BME280;9626;52.552;13.436;2023-05-03T06:48:31;102219.19;;;9.35;66.79
18985;BME280;9626;52.552;13.436;2023-05-03T06:50:57;102217.41;;;9.31;64.50
18985;BME280;9626;52.552;13.436;2023-05-03T06:53:23;102220.81;;;9.19;65.02
18985;BME280;9626;52.552;13.436;2023-05-03T06:55:49;102220.00;;;9.25;64.69
18985;BME280;9626;52.552;13.436;2023-05-03T06:58:15;102220.72;;;9.10;62.58
18985;BME280;9626;52.552;13.436;2023-05-03T07:00:41;102222.50;;;9.12;63.49
18985;BME280;9626;52.552;13.436;2023-05-03T07:03:07;102227.06;;;9.27;62.46
18985;BME280;9626;52.552;13.436;2023-05-03T07:05:33;102216.63;;;9.38;61.80
18985;BME280;9626;52.552;13.436;2023-05-03T07:07:59;102229.00;;;9.45;60.77
18985;BME280;9626;52.552;13.436;2023-05-03T07:10:25;102232.59;;;9.51;59.81
18985;BME280;9626;52.552;13.436;2023-05-03T07:12:55;102227.41;;;9.64;58.84
18985;BME280;9626;52.552;13.436;2023-05-03T07:15:22;102228.38;;;9.77;58.08
18985;BME280;9626;52.552;13.436;2023-05-03T07:17:47;102226.56;;;9.67;56.80
18985;BME280;9626;52.552;13.436;2023-05-03T07:20:13;102230.09;;;9.68;56.82
18985;BME280;9626;52.552;13.436;2023-05-03T07:22:40;102225.63;;;9.62;57.64
18985;BME280;9626;52.552;13.436;2023-05-03T07:25:06;102225.56;;;9.54;57.70
18985;BME280;9626;52.552;13.436;2023-05-03T07:27:32;102234.50;;;9.67;57.38
18985;BME280;9626;52.552;13.436;2023-05-03T07:29:58;102230.09;;;9.68;57.75
18985;BME280;9626;52.552;13.436;2023-05-03T07:32:25;102233.63;;;9.70;56.80
18985;BME280;9626;52.552;13.436;2023-05-03T07:34:51;102230.94;;;9.65;57.37
18985;BME280;9626;52.552;13.436;2023-05-03T07:37:17;102229.22;;;9.72;57.38
18985;BME280;9626;52.552;13.436;2023-05-03T07:39:43;102230.13;;;9.72;55.83
18985;BME280;9626;52.552;13.436;2023-05-03T07:42:10;102224.63;;;9.47;56.35
18985;BME280;9626;52.552;13.436;2023-05-03T07:44:36;102225.50;;;9.48;56.97
18985;BME280;9626;52.552;13.436;2023-05-03T07:47:02;102226.50;;;9.61;56.37
18985;BME280;9626;52.552;13.436;2023-05-03T07:49:28;102225.69;;;9.68;56.26
18985;BME280;9626;52.552;13.436;2023-05-03T07:51:57;102222.09;;;9.60;55.15
18985;BME280;9626;52.552;13.436;2023-05-03T07:54:23;102228.28;;;9.63;55.67
18985;BME280;9626;52.552;13.436;2023-05-03T07:56:49;102225.44;;;9.43;55.92
18985;BME280;9626;52.552;13.436;2023-05-03T07:59:15;102228.28;;;9.63;56.70
18985;BME280;9626;52.552;13.436;2023-05-03T08:01:41;102223.94;;;9.70;55.21
18985;BME280;9626;52.552;13.436;2023-05-03T08:04:07;102229.38;;;9.89;53.63
18985;BME280;9626;52.552;13.436;2023-05-03T08:06:33;102223.41;;;10.21;52.13
18985;BME280;9626;52.552;13.436;2023-05-03T08:09:00;102222.78;;;10.57;52.01
18985;BME280;9626;52.552;13.436;2023-05-03T08:11:26;102221.13;;;10.89;51.42
18985;BME280;9626;52.552;13.436;2023-05-03T08:13:53;102215.06;;;11.42;50.80
18985;BME280;9626;52.552;13.436;2023-05-03T08:16:20;102209.78;;;12.01;49.09
18985;BME280;9626;52.552;13.436;2023-05-03T08:18:46;102214.09;;;12.45;47.82
18985;BME280;9626;52.552;13.436;2023-05-03T08:21:12;102215.84;;;12.56;46.65
18985;BME280;9626;52.552;13.436;2023-05-03T08:23:39;102213.97;;;12.81;46.63
18985;BME280;9626;52.552;13.436;2023-05-03T08:26:05;102216.69;;;12.67;46.02
18985;BME280;9626;52.552;13.436;2023-05-03T08:28:32;102209.41;;;13.03;45.19
18985;BME280;9626;52.552;13.436;2023-05-03T08:30:58;102208.50;;;13.10;44.85
18985;BME280;9626;52.552;13.436;2023-05-03T08:33:24;102212.66;;;13.55;44.55
18985;BME280;9626;52.552;13.436;2023-05-03T08:35:51;102213.56;;;13.50;43.97
18985;BME280;9626;52.552;13.436;2023-05-03T08:38:17;102203.94;;;13.31;44.43
18985;BME280;9626;52.552;13.436;2023-05-03T08:40:47;102216.16;;;13.60;44.08
18985;BME280;9626;52.552;13.436;2023-05-03T08:43:19;102211.91;;;13.28;44.97
18985;BME280;9626;52.552;13.436;2023-05-03T08:45:45;102211.94;;;13.25;44.86
18985;BME280;9626;52.552;13.436;2023-05-03T08:48:13;102221.06;;;14.08;43.54
18985;BME280;9626;52.552;13.436;2023-05-03T08:50:39;102219.97;;;14.26;42.39
18985;BME280;9626;52.552;13.436;2023-05-03T08:53:08;102223.44;;;14.34;42.42
18985;BME280;9626;52.552;13.436;2023-05-03T08:55:34;102225.81;;;14.63;41.91
18985;BME280;9626;52.552;13.436;2023-05-03T08:58:02;102228.34;;;14.71;42.33
18985;BME280;9626;52.552;13.436;2023-05-03T09:00:35;102229.63;;;15.12;42.02
18985;BME280;9626;52.552;13.436;2023-05-03T09:03:01;102228.34;;;15.38;41.44
18985;BME280;9626;52.552;13.436;2023-05-03T09:05:31;102220.78;;;15.07;41.17
18985;BME280;9626;52.552;13.436;2023-05-03T09:08:06;102224.22;;;14.44;41.91
18985;BME280;9626;52.552;13.436;2023-05-03T09:10:39;102219.91;;;14.32;42.98
18985;BME280;9626;52.552;13.436;2023-05-03T09:13:05;102220.50;;;13.70;43.44
18985;BME280;9626;52.552;13.436;2023-05-03T09:15:32;102226.06;;;13.36;44.37
18985;BME280;9626;52.552;13.436;2023-05-03T09:18:17;102226.06;;;13.33;44.18
18985;BME280;9626;52.552;13.436;2023-05-03T09:20:45;102233.13;;;13.43;44.14
18985;BME280;9626;52.552;13.436;2023-05-03T09:23:28;102221.63;;;13.44;44.53
18985;BME280;9626;52.552;13.436;2023-05-03T09:25:54;102226.72;;;13.72;43.71
18985;BME280;9626;52.552;13.436;2023-05-03T09:28:20;102229.81;;;14.17;43.02
18985;BME280;9626;52.552;13.436;2023-05-03T09:30:47;102219.16;;;14.19;42.31
18985;BME280;9626;52.552;13.436;2023-05-03T09:33:13;102230.25;;;13.71;43.20
18985;BME280;9626;52.552;13.436;2023-05-03T09:35:57;102226.34;;;14.14;43.08
18985;BME280;9626;52.552;13.436;2023-05-03T09:38:30;102235.09;;;14.25;43.45
18985;BME280;9626;52.552;13.436;2023-05-03T09:41:00;102231.53;;;14.23;42.96
18985;BME280;9626;52.552;13.436;2023-05-03T09:43:27;102238.28;;;13.68;42.32
18985;BME280;9626;52.552;13.436;2023-05-03T09:46:07;102232.25;;;13.44;43.14
18985;BME280;9626;52.552;13.436;2023-05-03T09:48:34;102230.41;;;13.54;45.43
18985;BME280;9626;52.552;13.436;2023-05-03T09:51:02;102213.94;;;14.10;45.53
18985;BME280;9626;52.552;13.436;2023-05-03T09:53:31;102217.91;;;14.52;43.29
18985;BME280;9626;52.552;13.436;2023-05-03T09:55:58;102230.81;;;14.88;42.08
18985;BME280;9626;52.552;13.436;2023-05-03T09:58:27;102225.88;;;15.23;40.72
18985;BME280;9626;52.552;13.436;2023-05-03T10:00:55;102220.53;;;15.24;40.36
18985;BME280;9626;52.552;13.436;2023-05-03T10:03:42;102219.56;;;15.31;40.95
18985;BME280;9626;52.552;13.436;2023-05-03T10:11:36;102209.88;;;15.23;39.72
18985;BME280;9626;52.552;13.436;2023-05-03T10:14:05;102211.44;;;15.37;39.58
18985;BME280;9626;52.552;13.436;2023-05-03T10:16:36;102210.47;;;15.45;41.07
18985;BME280;9626;52.552;13.436;2023-05-03T10:19:12;102211.06;;;15.61;39.96
18985;BME280;9626;52.552;13.436;2023-05-03T10:21:58;102201.94;;;15.74;40.23
18985;BME280;9626;52.552;13.436;2023-05-03T10:24:27;102208.72;;;15.97;39.36
18985;BME280;9626;52.552;13.436;2023-05-03T10:26:54;102196.28;;;15.94;38.34
18985;BME280;9626;52.552;13.436;2023-05-03T10:35:07;102207.41;;;15.66;39.33
18985;BME280;9626;52.552;13.436;2023-05-03T10:37:34;102208.22;;;15.15;38.84
18985;BME280;9626;52.552;13.436;2023-05-03T10:40:06;102211.28;;;14.87;40.07
18985;BME280;9626;52.552;13.436;2023-05-03T10:42:32;102201.47;;;14.90;40.29
18985;BME280;9626;52.552;13.436;2023-05-03T10:44:59;102194.16;;;15.04;40.65
18985;BME280;9626;52.552;13.436;2023-05-03T10:47:26;102200.94;;;15.27;39.51
18985;BME280;9626;52.552;13.436;2023-05-03T10:55:08;102191.75;;;15.98;38.53
18985;BME280;9626;52.552;13.436;2023-05-03T10:57:37;102192.69;;;15.97;38.39
18985;BME280;9626;52.552;13.436;2023-05-03T11:00:10;102189.09;;;15.98;38.69
18985;BME280;9626;52.552;13.436;2023-05-03T11:05:30;102190.31;;;15.80;37.16
18985;BME280;9626;52.552;13.436;2023-05-03T11:08:16;102190.22;;;15.30;38.15
18985;BME280;9626;52.552;13.436;2023-05-03T11:10:44;102189.81;;;14.97;40.83
18985;BME280;9626;52.552;13.436;2023-05-03T11:13:10;102180.75;;;14.40;39.97
18985;BME280;9626;52.552;13.436;2023-05-03T11:15:37;102186.19;;;14.31;40.55
18985;BME280;9626;52.552;13.436;2023-05-03T11:18:07;102192.75;;;14.78;39.13
18985;BME280;9626;52.552;13.436;2023-05-03T11:20:34;102182.69;;;14.97;39.38
18985;BME280;9626;52.552;13.436;2023-05-03T11:23:01;102179.38;;;15.39;38.70
18985;BME280;9626;52.552;13.436;2023-05-03T11:25:27;102180.88;;;15.55;38.63
18985;BME280;9626;52.552;13.436;2023-05-03T11:27:53;102181.09;;;15.45;38.63
18985;BME280;9626;52.552;13.436;2023-05-03T11:30:19;102181.00;;;15.49;39.76
18985;BME280;9626;52.552;13.436;2023-05-03T11:32:46;102167.53;;;15.55;39.79
18985;BME280;9626;52.552;13.436;2023-05-03T11:35:12;102178.53;;;15.92;38.65
18985;BME280;9626;52.552;13.436;2023-05-03T11:37:41;102176.00;;;16.31;38.05
18985;BME280;9626;52.552;13.436;2023-05-03T11:40:14;102170.59;;;16.34;36.97
18985;BME280;9626;52.552;13.436;2023-05-03T11:43:09;102165.50;;;16.21;39.01
18985;BME280;9626;52.552;13.436;2023-05-03T11:45:44;102162.53;;;16.35;37.67
18985;BME280;9626;52.552;13.436;2023-05-03T11:48:11;102160.25;;;16.15;38.42
18985;BME280;9626;52.552;13.436;2023-05-03T11:50:51;102156.81;;;16.10;39.02
18985;BME280;9626;52.552;13.436;2023-05-03T11:53:22;102154.34;;;15.99;38.82
18985;BME280;9626;52.552;13.436;2023-05-03T11:55:51;102166.38;;;15.74;38.59
18985;BME280;9626;52.552;13.436;2023-05-03T11:58:22;102152.59;;;15.45;39.15
18985;BME280;9626;52.552;13.436;2023-05-03T12:00:53;102156.38;;;14.71;40.44
18985;BME280;9626;52.552;13.436;2023-05-03T12:03:24;102156.72;;;14.43;40.95
18985;BME280;9626;52.552;13.436;2023-05-03T12:05:51;102151.16;;;14.62;41.49
18985;BME280;9626;52.552;13.436;2023-05-03T12:08:21;102152.31;;;15.08;40.69
18985;BME280;9626;52.552;13.436;2023-05-03T12:10:48;102151.56;;;15.54;39.94
18985;BME280;9626;52.552;13.436;2023-05-03T12:13:14;102140.81;;;16.07;40.08
18985;BME280;9626;52.552;13.436;2023-05-03T12:15:58;102146.09;;;16.12;38.88
18985;BME280;9626;52.552;13.436;2023-05-03T12:18:26;102139.13;;;16.03;38.57
18985;BME280;9626;52.552;13.436;2023-05-03T12:20:56;102142.44;;;15.67;38.94
18985;BME280;9626;52.552;13.436;2023-05-03T12:23:25;102147.44;;;15.87;38.79
18985;BME280;9626;52.552;13.436;2023-05-03T12:25:51;102140.00;;;16.05;39.13
18985;BME280;9626;52.552;13.436;2023-05-03T12:28:18;102145.84;;;15.76;38.27
18985;BME280;9626;52.552;13.436;2023-05-03T12:30:44;102133.03;;;15.46;38.83
18985;BME280;9626;52.552;13.436;2023-05-03T12:33:10;102129.41;;;15.47;39.78
18985;BME280;9626;52.552;13.436;2023-05-03T12:35:38;102128.75;;;15.87;40.32
18985;BME280;9626;52.552;13.436;2023-05-03T12:38:03;102137.53;;;16.38;39.32
18985;BME280;9626;52.552;13.436;2023-05-03T12:40:31;102127.28;;;16.59;38.47
18985;BME280;9626;52.552;13.436;2023-05-03T12:42:57;102129.94;;;17.01;37.67
18985;BME280;9626;52.552;13.436;2023-05-03T12:45:26;102126.44;;;16.99;35.82
18985;BME280;9626;52.552;13.436;2023-05-03T12:47:52;102129.28;;;16.91;37.12
18985;BME280;9626;52.552;13.436;2023-05-03T12:50:18;102132.25;;;16.77;37.46
18985;BME280;9626;52.552;13.436;2023-05-03T12:52:45;102140.16;;;16.82;39.78
18985;BME280;9626;52.552;13.436;2023-05-03T12:55:11;102130.09;;;16.54;40.35
18985;BME280;9626;52.552;13.436;2023-05-03T12:57:37;102129.44;;;16.41;47.55
18985;BME280;9626;52.552;13.436;2023-05-03T13:00:07;102129.84;;;16.22;42.00
18985;BME280;9626;52.552;13.436;2023-05-03T13:02:34;102132.63;;;16.16;39.67
18985;BME280;9626;52.552;13.436;2023-05-03T13:05:00;102126.63;;;16.49;39.70
18985;BME280;9626;52.552;13.436;2023-05-03T13:07:28;102120.19;;;16.58;37.26
18985;BME280;9626;52.552;13.436;2023-05-03T13:09:55;102117.81;;;16.84;38.52
18985;BME280;9626;52.552;13.436;2023-05-03T13:12:22;102121.00;;;17.02;40.60
18985;BME280;9626;52.552;13.436;2023-05-03T13:14:49;102111.81;;;17.12;38.35
18985;BME280;9626;52.552;13.436;2023-05-03T13:17:16;102114.25;;;17.57;39.49
18985;BME280;9626;52.552;13.436;2023-05-03T13:19:43;102107.59;;;17.72;41.71
18985;BME280;9626;52.552;13.436;2023-05-03T13:22:13;102110.91;;;18.15;41.61